Aérodrome :
LOGIN :

S'inscrire | Disclaimer

   EN    FR    IT 

 










Légende :    VFR   VFR Marginal   IFR   IFR Intensif   IFR Très Intensif
Visi : 
Plafond : 
>= 8 km
>= 3000ft
5 à 8 km
1000 à 3000 ft
1500m à 5 km
500 à 1000 ft
800 à 1500m
200 à 500 ft
< 800m
< 200 ft
Symboles :   Orages  Brouillard  Fortes neiges  Fortes précipitations  Vent > 20 kt
SIGMETs :   Divers  Orages  Givrage  Turbulence  Onde Orograph.  Cendres Volcan.






- Altitude de l'aérodrome : 36 ft
- Code IATA : LTQ


LFAT - Le Touquet

DERNIER METAR :
  • 040530Z AUTO 22010KT 190V260 9999 OVC017 16/13 Q1015

METARs EXPIRÉS :
  • 040500Z AUTO 22010KT 180V260 9999 OVC019 16/13 Q1015
  • 040430Z AUTO 22011KT 180V250 9999 OVC020 16/13 Q1015
  • 040400Z AUTO 22008KT 180V260 9999 BKN020 OVC025 16/14 Q1016
  • 040330Z AUTO 24010KT 210V270 9999 SCT019/// OVC025/// ///TCU 16/14 Q1016
  • 040300Z AUTO 23010KT 190V260 9999 -RA BKN019 BKN026 OVC034 16/14 Q1016

Prévision TAF périmée.
ATIS : +33 3 21 06 62 84



MET'MAP, la Météo Aéronautique d'un coup d'oeil ! - Copyright ORBIFLY Décembre 2007 - Disclaimer

ORBIFLY MET'MAP TEAM :

Programmation & Développement : Alexandra Zaïnal
Sur une idée originale de : Baudouin d'Aumeries
Assistance à la programmation : Marc-Olivier Méhu
Soutien technique & logistique : Manuel Goepfert

Contact : metmap@orbifly.com




SOURCES & CREDITS :

   NOAA